South Pomfret, Vermont
Current Conditions -  °F | °C
As of 4:28 PM on Thursday 23 Oct 2014 (Local Time) from KLEB Reporting Station
Light Rain Light Rain  
Wind Chill: 46°   Ceiling: 1200
Heat Index: 49°   Visibility: 6mi
Dew Point: 45°   Wind: 7mph
Humidity: 86%   Direction: 340°NNW
Pressure: 29.79"   Gusts: NA
Location:  43.66°N, 72.54°W
Report Text: KLEB 232028Z 34006KT 6SM -RA BR SCT006 OVC012 09/07 A2979 RMK AO2 RAB17 P0000 T00940072
Loading
Personal Weather Stations






























Interactive Weather Map
Tropical Storm Tracking
New forecast layout! Learn more

10-Day Weather Forecast

Advertisements
Track Severe Weather on mobile